CheckWX is a tool to help pilots better visualize weather data.  It is not intended as a substitute for an official pre-flight weather briefing.

22:16:38 UTC

RKTN TAF
Daegu Airport
Daegu, South Korea
TAF RKTN 051700Z 0518/0624 30008KT 9999 SCT040 TNM07/0521Z TX05/0606Z

Dec-5@
18:00 UTC

Dec-5 @ 18:00 UTC

Dec-7@
00:00 UTC

Dec-7 @ 00:00 UTC

TAF RKTN 051700Z 0518/0624 30008KT 9999 SCT040 TNM07/0521Z TX05/0606Z
Wind
  • 300° at 8 KTS
Cloud Levels
  • Scattered at 4,000' AGL